Time;durP1;ratioP1;P1;durP2;ratioP2;P2;SDS_P1;SDS_P2;PMS_P1;PMS_P2;Temp;Humidity;BMP_temperature;BMP_pressure;BME280_temperature;BME280_humidity;BME280_pressure;Samples;Min_cycle;Max_cycle;Signal;HPM_P1;HPM_P2
2023/12/21 00:02:06;;;;;;;6.18;2.20;;;;;;;18.90;69.45;100723.16;5000864;28;20041;-36
2023/12/21 00:04:33;;;;;;;6.20;2.20;;;;;;;18.88;69.57;100706.97;5001398;28;20038;-35
2023/12/21 00:06:58;;;;;;;7.57;2.22;;;;;;;18.88;69.32;100715.22;5001899;28;20033;-35
2023/12/21 00:09:24;;;;;;;6.55;2.30;;;;;;;18.86;69.31;100700.94;5007688;28;20029;-35
2023/12/21 00:11:49;;;;;;;10.20;2.25;;;;;;;18.86;69.58;100694.59;5004928;28;20031;-37
2023/12/21 00:14:14;;;;;;;6.13;1.98;;;;;;;18.84;69.41;100692.16;5008047;28;20021;-38
2023/12/21 00:16:40;;;;;;;8.23;2.20;;;;;;;18.84;69.47;100694.91;5009541;28;20057;-37
2023/12/21 00:19:05;;;;;;;6.53;2.10;;;;;;;18.84;69.71;100683.09;5002136;28;20132;-37
2023/12/21 00:21:30;;;;;;;6.45;2.20;;;;;;;18.83;69.55;100685.00;4997950;28;20092;-37
2023/12/21 00:23:56;;;;;;;7.72;2.83;;;;;;;18.83;69.85;100685.00;5001469;28;20436;-36
2023/12/21 00:26:21;;;;;;;7.78;2.33;;;;;;;18.82;69.90;100677.91;5004994;28;20033;-37
2023/12/21 00:28:47;;;;;;;8.90;2.40;;;;;;;18.82;69.69;100674.31;4981679;28;20254;-37
2023/12/21 00:31:12;;;;;;;6.72;2.50;;;;;;;18.81;69.63;100656.22;5007962;28;20508;-36
2023/12/21 00:33:38;;;;;;;4.47;1.80;;;;;;;18.81;69.76;100658.94;4998090;28;20509;-36
2023/12/21 00:36:04;;;;;;;11.73;2.55;;;;;;;18.80;69.93;100651.81;5000322;28;20035;-37
2023/12/21 00:38:29;;;;;;;7.07;2.33;;;;;;;18.79;69.95;100645.53;4998767;28;20028;-37
2023/12/21 00:40:56;;;;;;;8.38;2.80;;;;;;;18.77;69.98;100643.06;4999239;28;20029;-37
2023/12/21 00:43:21;;;;;;;6.90;2.40;;;;;;;18.76;70.04;100626.84;5000240;28;20029;-38
2023/12/21 00:45:47;;;;;;;6.50;2.30;;;;;;;18.75;69.99;100647.22;5001750;28;20049;-37
2023/12/21 00:48:14;;;;;;;6.65;2.30;;;;;;;18.73;69.97;100631.00;5000704;28;20029;-35
2023/12/21 00:50:40;;;;;;;10.50;2.70;;;;;;;18.73;70.14;100628.25;5004064;28;20025;-37
2023/12/21 00:53:05;;;;;;;7.68;2.40;;;;;;;18.70;70.04;100617.88;5000083;28;20405;-37
2023/12/21 00:55:30;;;;;;;5.07;2.15;;;;;;;18.71;70.15;100610.44;5011010;28;20033;-36
2023/12/21 00:57:56;;;;;;;8.88;2.20;;;;;;;18.69;70.28;100599.75;5003443;28;20161;-36
2023/12/21 01:00:22;;;;;;;8.02;2.10;;;;;;;18.68;70.22;100600.03;5007610;28;20033;-37
2023/12/21 01:02:47;;;;;;;6.28;2.22;;;;;;;18.66;70.26;100614.03;4989914;28;20044;-36
2023/12/21 01:05:12;;;;;;;7.72;2.25;;;;;;;18.66;70.43;100621.47;5005957;28;20037;-37
2023/12/21 01:07:38;;;;;;;6.80;2.20;;;;;;;18.66;70.34;100596.75;5005457;28;20501;-36
2023/12/21 01:10:05;;;;;;;9.32;2.22;;;;;;;18.66;70.56;100596.75;5003090;28;20033;-36
2023/12/21 01:12:32;;;;;;;6.40;2.40;;;;;;;18.65;70.41;100589.63;5004530;28;20119;-35
2023/12/21 01:14:59;;;;;;;9.07;2.53;;;;;;;18.64;70.53;100587.97;5005444;28;20026;-36
2023/12/21 01:17:24;;;;;;;5.32;1.95;;;;;;;18.63;70.61;100576.19;5003822;28;20060;-37
2023/12/21 01:19:50;;;;;;;6.40;2.20;;;;;;;18.63;70.54;100580.88;5019433;28;20494;-37
2023/12/21 01:22:15;;;;;;;7.18;2.20;;;;;;;18.63;70.50;100556.97;5008753;28;20038;-36
2023/12/21 01:24:41;;;;;;;6.85;2.00;;;;;;;18.63;70.64;100559.72;4993298;28;20574;-36
2023/12/21 01:27:06;;;;;;;6.97;2.88;;;;;;;18.61;70.82;100567.41;4990186;28;20025;-37
2023/12/21 01:29:31;;;;;;;8.00;2.40;;;;;;;18.62;70.85;100582.78;5004775;28;20025;-37
2023/12/21 01:31:58;;;;;;;5.15;2.13;;;;;;;18.61;70.50;100556.44;5004342;28;20033;-38
2023/12/21 01:34:23;;;;;;;5.82;2.30;;;;;;;18.60;70.81;100550.16;5013897;28;20025;-38
2023/12/21 01:36:49;;;;;;;6.72;2.22;;;;;;;18.61;70.80;100553.69;5004829;28;20077;-37
2023/12/21 01:39:14;;;;;;;10.07;2.85;;;;;;;18.61;70.83;100561.94;5004654;28;20022;-35
2023/12/21 01:41:39;;;;;;;8.07;2.65;;;;;;;18.59;71.02;100556.75;5009002;28;20021;-37
2023/12/21 01:44:05;;;;;;;4.65;1.80;;;;;;;18.58;70.86;100557.03;5004740;28;20386;-36
2023/12/21 01:46:31;;;;;;;7.32;2.25;;;;;;;18.59;70.94;100573.19;5010502;28;20033;-37
2023/12/21 01:48:57;;;;;;;7.85;2.35;;;;;;;18.59;70.79;100544.94;5003330;28;20550;-36
2023/12/21 01:51:22;;;;;;;7.03;2.15;;;;;;;18.59;70.67;100544.94;5002214;28;20117;-36
2023/12/21 01:53:50;;;;;;;7.57;2.03;;;;;;;18.58;71.01;100533.13;4994067;28;20037;-37
2023/12/21 01:56:15;;;;;;;8.80;2.20;;;;;;;18.57;70.64;100527.94;5005482;28;20038;-37
2023/12/21 01:58:41;;;;;;;5.75;2.00;;;;;;;18.56;70.82;100529.84;5005142;28;20085;-36
2023/12/21 02:01:06;;;;;;;5.53;2.30;;;;;;;18.56;71.04;100529.03;4984485;28;20030;-36
2023/12/21 02:03:32;;;;;;;8.80;2.10;;;;;;;18.55;71.08;100522.75;4995397;28;20039;-35
2023/12/21 02:05:59;;;;;;;9.38;2.20;;;;;;;18.54;71.15;100537.56;5002264;28;20129;-36
2023/12/21 02:08:25;;;;;;;7.00;2.55;;;;;;;18.52;71.28;100523.31;5001884;28;20526;-37
2023/12/21 02:10:50;;;;;;;7.72;2.38;;;;;;;18.52;71.20;100509.59;5000614;28;20040;-36
2023/12/21 02:13:15;;;;;;;5.13;2.05;;;;;;;18.54;71.13;100503.81;5011108;28;20265;-36
2023/12/21 02:15:41;;;;;;;7.95;2.13;;;;;;;18.54;70.93;100501.06;5001479;28;20021;-36
2023/12/21 02:18:07;;;;;;;6.50;2.05;;;;;;;18.54;71.18;100503.81;4987684;28;20079;-37
2023/12/21 02:20:33;;;;;;;8.00;2.15;;;;;;;18.53;70.87;100500.25;5003654;28;20497;-37
2023/12/21 02:23:03;;;;;;;6.25;2.30;;;;;;;18.51;71.13;100494.22;4981012;28;20021;-36
2023/12/21 02:25:29;;;;;;;7.88;2.80;;;;;;;18.51;71.30;100485.19;5002492;28;20053;-37
2023/12/21 02:27:55;;;;;;;7.60;2.20;;;;;;;18.49;71.36;100477.25;5003554;28;20030;-37
2023/12/21 02:30:20;;;;;;;5.75;2.03;;;;;;;18.49;71.21;100470.94;4988380;28;20029;-37
2023/12/21 02:32:46;;;;;;;9.23;2.53;;;;;;;18.48;71.29;100475.63;5005675;28;20033;-36
2023/12/21 02:35:11;;;;;;;6.03;2.55;;;;;;;18.47;71.33;100473.13;5003434;28;20030;-37
2023/12/21 02:37:36;;;;;;;8.27;2.30;;;;;;;18.48;71.60;100472.88;5006910;28;20459;-37
2023/12/21 02:40:02;;;;;;;8.20;2.10;;;;;;;18.47;71.29;100479.47;5000408;28;20448;-38
2023/12/21 02:42:27;;;;;;;5.05;2.25;;;;;;;18.45;71.67;100467.94;4982665;28;20479;-36
2023/12/21 02:44:53;;;;;;;7.75;2.00;;;;;;;18.46;71.31;100475.06;4971995;28;20511;-37
2023/12/21 02:47:18;;;;;;;8.38;2.20;;;;;;;18.46;71.34;100485.25;5005360;28;20124;-37
2023/12/21 02:49:43;;;;;;;7.22;2.20;;;;;;;18.46;71.54;100479.75;5010873;28;20028;-37
2023/12/21 02:52:09;;;;;;;8.38;2.30;;;;;;;18.46;71.58;100444.09;5005147;28;20639;-37
2023/12/21 02:54:34;;;;;;;7.70;2.47;;;;;;;18.44;71.56;100442.44;5000426;28;20442;-36
2023/12/21 02:57:00;;;;;;;9.13;2.30;;;;;;;18.44;71.68;100425.13;5003200;28;20025;-36
2023/12/21 02:59:26;;;;;;;10.18;2.65;;;;;;;18.44;71.58;100414.16;5005705;28;20033;-37
2023/12/21 03:01:51;;;;;;;7.05;2.58;;;;;;;18.42;71.59;100403.50;5004979;28;20034;-36
2023/12/21 03:04:17;;;;;;;8.10;2.67;;;;;;;18.43;71.40;100398.84;5004260;28;20797;-35
2023/12/21 03:06:43;;;;;;;10.95;2.38;;;;;;;18.42;71.63;100405.44;5000552;28;20029;-36
2023/12/21 03:09:09;;;;;;;8.57;2.50;;;;;;;18.41;71.81;100379.91;4983620;28;20057;-36
2023/12/21 03:11:35;;;;;;;9.50;2.63;;;;;;;18.42;71.55;100369.75;5004957;28;20052;-36
2023/12/21 03:14:00;;;;;;;7.97;2.22;;;;;;;18.41;71.78;100365.38;4999399;28;20417;-36
2023/12/21 03:16:26;;;;;;;7.45;2.50;;;;;;;18.40;71.78;100352.75;5001050;28;20042;-35
2023/12/21 03:18:51;;;;;;;9.13;2.30;;;;;;;18.39;71.90;100354.69;5005351;28;20010;-36
2023/12/21 03:21:16;;;;;;;7.68;2.45;;;;;;;18.37;71.75;100348.69;5006324;28;20061;-37
2023/12/21 03:23:42;;;;;;;6.43;2.10;;;;;;;18.35;71.89;100348.13;5005056;28;20472;-37
2023/12/21 03:26:09;;;;;;;4.82;1.95;;;;;;;18.34;72.28;100345.69;5003487;28;20076;-37
2023/12/21 03:28:34;;;;;;;7.50;2.67;;;;;;;18.33;71.84;100350.38;5004926;28;20081;-37
2023/12/21 03:31:06;;;;;;;7.50;2.38;;;;;;;18.34;72.32;100356.66;5001388;28;20459;-37
2023/12/21 03:33:31;;;;;;;9.20;2.53;;;;;;;18.32;72.23;100356.13;5001426;28;20193;-38
2023/12/21 03:35:57;;;;;;;9.20;2.50;;;;;;;18.32;72.35;100340.50;5002485;28;20318;-37
2023/12/21 03:38:22;;;;;;;9.00;2.53;;;;;;;18.31;72.13;100327.91;4999593;28;20022;-36
2023/12/21 03:40:47;;;;;;;8.30;2.30;;;;;;;18.30;72.14;100312.53;5005128;28;20044;-37
2023/12/21 03:43:13;;;;;;;7.03;2.30;;;;;;;18.31;72.24;100308.69;5001145;28;20096;-36
2023/12/21 03:45:40;;;;;;;8.27;2.58;;;;;;;18.31;72.29;100314.19;5006995;28;20029;-37
2023/12/21 03:48:09;;;;;;;6.68;2.15;;;;;;;18.30;72.37;100312.53;5005278;28;20035;-37
2023/12/21 03:50:35;;;;;;;9.38;2.88;;;;;;;18.31;72.38;100311.44;4993833;28;20030;-37
2023/12/21 03:53:01;;;;;;;7.30;2.38;;;;;;;18.31;72.44;100324.31;5011415;28;20036;-37
2023/12/21 03:55:26;;;;;;;5.32;2.10;;;;;;;18.30;72.29;100312.53;4999689;28;20030;-37
2023/12/21 03:57:52;;;;;;;9.05;1.95;;;;;;;18.28;72.57;100301.88;5002060;28;20041;-37
2023/12/21 04:00:20;;;;;;;9.82;2.33;;;;;;;18.28;72.52;100293.63;5006482;28;20064;-35
2023/12/21 04:02:46;;;;;;;6.35;2.10;;;;;;;18.28;72.41;100285.41;5005953;28;20081;-35
2023/12/21 04:05:11;;;;;;;5.07;2.13;;;;;;;18.28;72.48;100287.31;5001678;28;20443;-36
2023/12/21 04:07:37;;;;;;;8.05;2.38;;;;;;;18.27;72.62;100278.28;5009115;28;20134;-36
2023/12/21 04:10:03;;;;;;;7.65;2.08;;;;;;;18.27;72.58;100271.97;4985448;28;20029;-36
2023/12/21 04:12:28;;;;;;;6.05;2.08;;;;;;;18.27;72.46;100270.06;5001233;28;20077;-36
2023/12/21 04:14:53;;;;;;;7.95;2.85;;;;;;;18.27;72.56;100269.22;5002770;28;20075;-37
2023/12/21 04:17:19;;;;;;;5.50;1.70;;;;;;;18.27;72.63;100245.38;5007807;28;20057;-36
2023/12/21 04:19:44;;;;;;;6.47;2.20;;;;;;;18.26;72.62;100215.50;5014859;28;20502;-38
2023/12/21 04:22:09;;;;;;;5.85;2.10;;;;;;;18.27;72.73;100217.94;5006003;28;20567;-37
2023/12/21 04:24:35;;;;;;;8.65;2.42;;;;;;;18.26;72.69;100205.31;4995364;28;20057;-37
2023/12/21 04:27:00;;;;;;;8.13;2.10;;;;;;;18.26;72.60;100221.78;4966495;28;20523;-37
2023/12/21 04:29:25;;;;;;;6.40;2.00;;;;;;;18.24;72.78;100196.56;4981471;28;20027;-37
2023/12/21 04:31:51;;;;;;;6.25;2.10;;;;;;;18.23;72.89;100205.94;4983438;28;20117;-37
2023/12/21 04:34:16;;;;;;;9.25;2.33;;;;;;;18.26;72.95;100215.50;4984501;28;20330;-37
2023/12/21 04:36:42;;;;;;;10.32;2.55;;;;;;;18.25;72.77;100211.13;4985238;28;20026;-36
2023/12/21 04:39:07;;;;;;;8.55;2.67;;;;;;;18.25;72.96;100214.66;4950142;28;20506;-36
2023/12/21 04:41:33;;;;;;;6.22;2.00;;;;;;;18.24;72.89;100207.53;4969030;28;20494;-36
2023/12/21 04:43:58;;;;;;;5.75;2.28;;;;;;;18.23;72.96;100194.13;4985713;28;20030;-36
2023/12/21 04:46:23;;;;;;;5.57;2.47;;;;;;;18.23;73.12;100196.88;4985711;28;20553;-35
2023/12/21 04:48:49;;;;;;;6.45;2.13;;;;;;;18.22;72.97;100203.47;4984552;28;20058;-37
2023/12/21 04:51:15;;;;;;;7.38;2.00;;;;;;;18.21;73.16;100183.44;4984623;28;20026;-36
2023/12/21 04:53:41;;;;;;;7.43;2.30;;;;;;;18.22;73.04;100185.09;4985385;28;20057;-36
2023/12/21 04:56:06;;;;;;;5.97;2.13;;;;;;;18.22;73.23;100189.75;4985314;28;20525;-36
2023/12/21 04:58:32;;;;;;;6.20;1.70;;;;;;;18.22;72.92;100182.34;4982775;28;20018;-35
2023/12/21 05:00:57;;;;;;;5.40;1.80;;;;;;;18.22;73.01;100181.50;4983502;28;20034;-37
2023/12/21 05:03:23;;;;;;;6.50;2.00;;;;;;;18.23;73.17;100186.72;4966416;28;20073;-35
2023/12/21 05:05:48;;;;;;;8.02;2.03;;;;;;;18.21;73.11;100169.75;4985125;28;20491;-36
2023/12/21 05:08:14;;;;;;;9.75;2.50;;;;;;;18.22;73.12;100143.13;4983947;28;20061;-36
2023/12/21 05:10:40;;;;;;;7.65;2.05;;;;;;;18.21;73.20;100125.84;4984820;28;20026;-36
2023/12/21 05:13:05;;;;;;;4.28;1.90;;;;;;;18.24;73.50;100135.41;4965794;28;20034;-36
2023/12/21 05:15:31;;;;;;;7.70;2.47;;;;;;;18.28;73.17;100136.44;4966299;28;20023;-36
2023/12/21 05:17:56;;;;;;;5.65;1.98;;;;;;;18.32;73.31;100140.25;4984721;28;20284;-38
2023/12/21 05:20:21;;;;;;;4.85;2.20;;;;;;;18.38;73.15;100155.53;4983362;28;20109;-37
2023/12/21 05:22:47;;;;;;;5.28;1.90;;;;;;;18.43;73.06;100160.94;4983471;28;20419;-37
2023/12/21 05:25:15;;;;;;;6.40;2.17;;;;;;;18.51;72.86;100158.63;4994629;28;20125;-37
2023/12/21 05:27:41;;;;;;;7.20;2.03;;;;;;;18.58;73.16;100151.66;5004949;28;20022;-37
2023/12/21 05:30:06;;;;;;;6.00;2.30;;;;;;;18.66;73.03;100149.34;5004722;28;20036;-37
2023/12/21 05:32:32;;;;;;;4.75;2.17;;;;;;;18.76;72.81;100160.16;5001691;28;20394;-36
2023/12/21 05:34:57;;;;;;;5.00;1.98;;;;;;;18.84;72.70;100159.50;5003909;28;20110;-36
2023/12/21 05:37:22;;;;;;;4.65;2.05;;;;;;;18.95;72.43;100151.16;5000363;28;20368;-36
2023/12/21 05:39:49;;;;;;;6.80;2.47;;;;;;;19.05;72.37;100134.47;5008621;28;20037;-36
2023/12/21 05:42:14;;;;;;;6.63;2.05;;;;;;;19.14;72.39;100113.47;5003041;28;20036;-37
2023/12/21 05:44:40;;;;;;;5.65;1.90;;;;;;;19.24;72.21;100107.78;5002696;28;20034;-38
2023/12/21 05:47:05;;;;;;;4.28;1.95;;;;;;;19.32;72.06;100103.50;5009327;28;20052;-37
2023/12/21 05:49:30;;;;;;;5.85;2.38;;;;;;;19.40;71.94;100105.56;5003300;28;20030;-36
2023/12/21 05:51:56;;;;;;;6.40;2.15;;;;;;;19.50;71.81;100115.53;4984930;28;20025;-36
2023/12/21 05:54:21;;;;;;;5.13;1.77;;;;;;;19.58;71.46;100100.25;5001757;28;20506;-37
2023/12/21 05:56:47;;;;;;;6.50;2.35;;;;;;;19.67;71.52;100119.63;5001506;28;20034;-38
2023/12/21 05:59:12;;;;;;;7.30;2.53;;;;;;;19.76;71.13;100100.47;4985799;28;20021;-37
2023/12/21 06:01:39;;;;;;;4.65;1.73;;;;;;;19.83;71.25;100098.13;5001521;28;20030;-37
2023/12/21 06:04:04;;;;;;;4.85;2.03;;;;;;;19.90;71.06;100087.53;5005095;28;20104;-37
2023/12/21 06:06:30;;;;;;;4.93;2.05;;;;;;;19.93;70.69;100075.94;5002143;28;20132;-37
2023/12/21 06:08:55;;;;;;;5.13;1.95;;;;;;;19.97;70.64;100054.94;4986038;28;20054;-37
2023/12/21 06:11:21;;;;;;;4.43;1.80;;;;;;;19.96;70.56;100047.81;5004294;28;20121;-36
2023/12/21 06:13:46;;;;;;;4.68;1.92;;;;;;;19.99;70.32;100047.19;5000317;28;20342;-37
2023/12/21 06:16:12;;;;;;;11.30;2.33;;;;;;;20.01;70.22;100038.63;4983700;28;20026;-36
2023/12/21 06:18:39;;;;;;;5.03;1.92;;;;;;;20.02;70.45;100030.09;4999412;28;20533;-36
2023/12/21 06:21:05;;;;;;;5.25;2.00;;;;;;;20.02;70.19;100027.34;4982022;28;20041;-37
2023/12/21 06:23:30;;;;;;;6.30;1.85;;;;;;;20.00;69.84;100020.50;5010607;28;20034;-36
2023/12/21 06:25:56;;;;;;;6.28;2.00;;;;;;;19.98;70.17;100015.31;4971770;28;20124;-37
2023/12/21 06:28:22;;;;;;;8.88;2.53;;;;;;;19.96;69.95;100014.00;4982239;28;20438;-36
2023/12/21 06:30:47;;;;;;;6.18;2.38;;;;;;;19.93;69.99;100037.44;4981740;28;20177;-36
2023/12/21 06:33:13;;;;;;;6.05;1.95;;;;;;;19.92;70.10;100024.00;4982228;28;20030;-37
2023/12/21 06:35:38;;;;;;;6.88;1.92;;;;;;;19.90;69.85;100007.78;4965130;28;20034;-37
2023/12/21 06:38:04;;;;;;;6.38;1.90;;;;;;;19.88;70.06;100001.81;4984069;28;20439;-38
2023/12/21 06:40:29;;;;;;;4.78;1.80;;;;;;;19.85;70.06;100005.16;4964432;28;20081;-37
2023/12/21 06:42:54;;;;;;;6.47;2.10;;;;;;;19.83;69.82;100004.66;4983995;28;20034;-37
2023/12/21 06:45:20;;;;;;;5.50;1.80;;;;;;;19.79;69.90;99996.19;4984537;28;20109;-37
2023/12/21 06:47:45;;;;;;;6.32;1.83;;;;;;;19.77;70.13;100008.63;4982204;28;20034;-36
2023/12/21 06:50:11;;;;;;;5.95;2.17;;;;;;;19.73;69.99;99998.25;4984970;28;20542;-36
2023/12/21 06:52:36;;;;;;;5.22;1.88;;;;;;;19.70;70.11;99984.28;4965329;28;20034;-38
2023/12/21 06:55:02;;;;;;;6.43;1.90;;;;;;;19.67;70.31;99971.19;4982211;28;20026;-36
2023/12/21 06:57:28;;;;;;;4.80;2.20;;;;;;;19.64;70.25;99964.34;4980864;28;20471;-37
2023/12/21 06:59:54;;;;;;;6.20;2.05;;;;;;;19.60;70.26;99963.34;4979956;28;20019;-37
2023/12/21 07:02:19;;;;;;;4.35;1.75;;;;;;;19.58;70.34;99962.81;4980895;28;20450;-36
2023/12/21 07:04:45;;;;;;;7.20;2.22;;;;;;;19.54;70.17;99961.84;4982054;28;20037;-36
2023/12/21 07:07:10;;;;;;;4.93;2.30;;;;;;;19.51;70.27;99948.69;4979523;28;20034;-35
2023/12/21 07:09:36;;;;;;;6.00;1.83;;;;;;;19.48;70.72;99952.06;4981791;28;20117;-36
2023/12/21 07:12:01;;;;;;;8.82;2.47;;;;;;;19.45;70.39;99947.19;4982611;28;20048;-35
2023/12/21 07:14:26;;;;;;;5.50;2.20;;;;;;;19.40;70.53;99940.69;4981347;28;20078;-37
2023/12/21 07:16:52;;;;;;;7.60;2.00;;;;;;;19.38;70.62;99925.63;4985736;28;20498;-38
2023/12/21 07:19:18;;;;;;;4.07;1.90;;;;;;;19.34;70.75;99917.19;4964302;28;20515;-37
2023/12/21 07:21:43;;;;;;;8.27;2.15;;;;;;;19.31;71.15;99926.06;4980602;28;20701;-37
2023/12/21 07:24:09;;;;;;;5.95;2.28;;;;;;;19.28;70.93;99923.91;4983999;28;20065;-38
2023/12/21 07:26:34;;;;;;;7.50;2.28;;;;;;;19.26;71.05;99933.59;4983884;28;20052;-37
2023/12/21 07:28:59;;;;;;;7.22;2.38;;;;;;;19.22;71.45;99930.63;4999886;28;20393;-38
2023/12/21 07:31:25;;;;;;;5.50;2.08;;;;;;;19.20;71.29;99917.22;5000825;28;20096;-38
2023/12/21 07:33:51;;;;;;;5.40;2.03;;;;;;;19.18;71.58;99915.91;5002312;28;20737;-38
2023/12/21 07:36:16;;;;;;;5.15;1.92;;;;;;;19.15;71.58;99908.25;4982880;28;20505;-37
2023/12/21 07:38:41;;;;;;;6.07;2.05;;;;;;;19.11;71.65;99913.56;5002880;28;20164;-37
2023/12/21 07:41:08;;;;;;;5.60;2.30;;;;;;;19.09;71.80;99910.28;4982248;28;20022;-37
2023/12/21 07:43:33;;;;;;;7.78;2.00;;;;;;;19.05;71.79;99901.84;5001358;28;20040;-37
2023/12/21 07:45:58;;;;;;;5.38;2.10;;;;;;;19.05;71.83;99906.53;5001075;28;20022;-36
2023/12/21 07:48:24;;;;;;;6.93;1.85;;;;;;;19.02;72.18;99899.72;4983708;28;20553;-37
2023/12/21 07:50:49;;;;;;;5.95;2.10;;;;;;;19.02;72.14;99898.94;4999794;28;20116;-38
2023/12/21 07:53:15;;;;;;;5.70;1.80;;;;;;;19.00;72.18;99899.22;5000354;28;20075;-37
2023/12/21 07:55:40;;;;;;;6.55;2.22;;;;;;;18.97;71.97;99896.28;4999567;28;20030;-37
2023/12/21 07:58:06;;;;;;;5.57;1.92;;;;;;;18.96;72.02;99900.13;4999848;28;20105;-37
2023/12/21 08:00:31;;;;;;;8.10;1.80;;;;;;;18.95;72.06;99877.38;4997600;28;20357;-38
2023/12/21 08:02:57;;;;;;;4.25;1.90;;;;;;;18.93;72.44;99874.09;4998742;28;20034;-37
2023/12/21 08:05:23;;;;;;;6.10;2.03;;;;;;;18.90;72.38;99872.75;5000628;28;20057;-37
2023/12/21 08:07:52;;;;;;;8.00;1.77;;;;;;;18.89;72.86;99838.19;4998203;28;20037;-37
2023/12/21 08:10:17;;;;;;;4.53;1.80;;;;;;;18.86;72.77;99863.50;4998766;28;20225;-38
2023/12/21 08:12:43;;;;;;;4.28;1.90;;;;;;;18.86;72.61;99860.78;4963147;28;20034;-37
2023/12/21 08:15:12;;;;;;;6.20;2.17;;;;;;;18.85;72.75;99872.88;4998123;28;20092;-37
2023/12/21 08:17:39;;;;;;;6.88;2.30;;;;;;;18.85;72.89;99883.84;4984220;28;20241;-38
2023/12/21 08:20:04;;;;;;;6.38;2.20;;;;;;;18.84;72.66;99884.97;5000426;28;20026;-38
2023/12/21 08:22:31;;;;;;;6.30;1.90;;;;;;;18.84;72.87;99875.94;4997794;28;20180;-37
2023/12/21 08:24:57;;;;;;;6.07;1.65;;;;;;;18.83;72.85;99869.59;5000508;28;20392;-37
2023/12/21 08:27:23;;;;;;;6.30;2.13;;;;;;;18.81;72.85;99893.81;4998459;28;20030;-37
2023/12/21 08:29:49;;;;;;;5.55;1.90;;;;;;;18.80;73.05;99869.41;4981675;28;20046;-37
2023/12/21 08:32:15;;;;;;;5.25;1.73;;;;;;;18.79;73.18;99889.75;4998463;28;20033;-37
2023/12/21 08:34:40;;;;;;;6.03;1.83;;;;;;;18.78;73.18;99886.19;4999585;28;20025;-38
2023/12/21 08:37:05;;;;;;;6.93;2.15;;;;;;;18.76;73.26;99877.44;4997193;28;20030;-37
2023/12/21 08:39:31;;;;;;;6.78;2.10;;;;;;;18.75;73.00;99879.38;4999599;28;20046;-36
2023/12/21 08:41:56;;;;;;;5.57;1.98;;;;;;;18.73;73.27;99881.59;4998778;28;20467;-38
2023/12/21 08:44:21;;;;;;;7.82;2.00;;;;;;;18.74;73.16;99868.72;4994466;28;20029;-37
2023/12/21 08:46:47;;;;;;;7.55;1.88;;;;;;;18.73;73.14;99887.09;4998063;28;20034;-38
2023/12/21 08:49:15;;;;;;;4.68;1.90;;;;;;;18.73;73.20;99872.56;4997599;28;20534;-36
2023/12/21 08:51:40;;;;;;;6.03;1.83;;;;;;;18.72;73.31;99880.00;4998907;28;20391;-37
2023/12/21 08:54:06;;;;;;;7.50;2.60;;;;;;;18.72;73.38;99865.44;5000190;28;20048;-37
2023/12/21 08:56:31;;;;;;;7.25;2.10;;;;;;;18.71;73.44;99858.31;5000806;28;20316;-36
2023/12/21 08:58:57;;;;;;;7.55;2.10;;;;;;;18.67;73.53;99849.88;5000114;28;20502;-37
2023/12/21 09:01:22;;;;;;;6.80;2.30;;;;;;;18.69;73.44;99863.31;4997789;28;20026;-37
2023/12/21 09:03:48;;;;;;;5.53;2.33;;;;;;;18.69;73.39;99860.59;5000150;28;20363;-37
2023/12/21 09:06:13;;;;;;;5.13;1.80;;;;;;;18.68;73.44;99867.97;4997730;28;20407;-36
2023/12/21 09:08:38;;;;;;;3.92;1.70;;;;;;;18.68;73.74;99867.97;4996827;28;20231;-37
2023/12/21 09:11:04;;;;;;;7.88;2.03;;;;;;;18.68;73.49;99856.22;5002995;28;20030;-36
2023/12/21 09:13:32;;;;;;;5.82;2.00;;;;;;;18.69;73.50;99863.31;4999600;28;20169;-39
2023/12/21 09:15:58;;;;;;;6.05;1.80;;;;;;;18.66;73.59;99878.44;4999400;28;20450;-37
2023/12/21 09:18:23;;;;;;;6.45;2.10;;;;;;;18.66;73.71;99853.75;4984928;28;20046;-37
2023/12/21 09:20:48;;;;;;;8.13;2.40;;;;;;;18.65;74.04;99889.75;5002362;28;20061;-37
2023/12/21 09:23:14;;;;;;;7.32;1.92;;;;;;;18.65;73.96;99862.28;5004512;28;20546;-37
2023/12/21 09:25:39;;;;;;;7.82;2.38;;;;;;;18.65;74.13;99851.31;5001928;28;20125;-37
2023/12/21 09:28:05;;;;;;;5.20;1.98;;;;;;;18.64;73.87;99842.28;5013991;28;20542;-37
2023/12/21 09:30:30;;;;;;;9.27;2.33;;;;;;;18.64;74.27;99841.44;5003687;28;20034;-37
2023/12/21 09:32:59;;;;;;;7.45;2.25;;;;;;;18.62;74.28;99833.53;5003104;28;20021;-38
2023/12/21 09:35:24;;;;;;;7.22;2.20;;;;;;;18.62;74.03;99839.03;5002778;28;20045;-36
2023/12/21 09:37:50;;;;;;;6.75;1.92;;;;;;;18.60;74.58;99839.31;5004095;28;20030;-36
2023/12/21 09:40:16;;;;;;;8.13;2.42;;;;;;;18.58;74.32;99841.56;5012087;28;20113;-36
2023/12/21 09:42:47;;;;;;;6.95;2.13;;;;;;;18.60;74.56;99842.06;5003021;28;20025;-37
2023/12/21 09:45:13;;;;;;;7.47;2.53;;;;;;;18.59;74.57;99837.69;4978769;28;20482;-38
2023/12/21 09:47:39;;;;;;;15.23;2.40;;;;;;;18.60;75.03;99844.00;4990600;28;20033;-34
2023/12/21 09:50:07;;;;;;;18.58;3.00;;;;;;;18.66;75.55;99825.50;5004041;28;20133;-34
2023/12/21 09:52:37;;;;;;;11.38;1.98;;;;;;;18.71;75.65;99817.16;5001808;28;20037;-36
2023/12/21 09:55:04;;;;;;;8.50;2.30;;;;;;;18.77;75.83;99824.16;4998978;28;20889;-35
2023/12/21 09:57:29;;;;;;;7.82;1.90;;;;;;;18.82;75.68;99846.03;4987264;28;20505;-37
2023/12/21 09:59:56;;;;;;;7.90;1.95;;;;;;;18.87;75.78;99845.09;5002805;28;20040;-36
2023/12/21 10:02:26;;;;;;;9.20;1.92;;;;;;;18.92;75.50;99847.78;5005507;28;20098;-36
2023/12/21 10:04:52;;;;;;;5.45;1.85;;;;;;;18.97;75.73;99846.84;5007003;28;20117;-36
2023/12/21 10:07:17;;;;;;;7.10;2.05;;;;;;;19.00;75.56;99852.53;5014885;28;20120;-36
2023/12/21 10:09:43;;;;;;;5.60;2.20;;;;;;;19.05;75.29;99837.88;4988917;28;20033;-36
2023/12/21 10:12:08;;;;;;;6.32;1.80;;;;;;;19.08;75.28;99843.59;5005014;28;20057;-36
2023/12/21 10:14:34;;;;;;;7.38;2.22;;;;;;;19.13;75.31;99855.56;5001605;28;20510;-36
2023/12/21 10:17:00;;;;;;;9.23;2.25;;;;;;;19.18;75.32;99847.25;5003134;28;20037;-36
2023/12/21 10:19:26;;;;;;;7.65;2.30;;;;;;;19.20;75.11;99856.78;5003146;28;20730;-35
2023/12/21 10:21:51;;;;;;;8.32;2.08;;;;;;;19.26;75.01;99826.47;4990958;28;20022;-35
2023/12/21 10:24:17;;;;;;;6.80;2.13;;;;;;;19.30;74.69;99846.69;4984220;28;20587;-35
2023/12/21 10:26:43;;;;;;;11.07;2.63;;;;;;;19.33;74.47;99838.63;5004097;28;20167;-35
2023/12/21 10:29:09;;;;;;;5.03;1.90;;;;;;;19.37;74.67;99834.16;5009514;28;20652;-35
2023/12/21 10:31:34;;;;;;;8.65;2.30;;;;;;;19.40;74.33;99839.03;5006329;28;20029;-35
2023/12/21 10:33:59;;;;;;;6.68;2.15;;;;;;;19.43;74.33;99821.09;5009127;28;20371;-36
2023/12/21 10:36:26;;;;;;;9.45;2.22;;;;;;;19.46;74.61;99852.63;4987660;28;20057;-36
2023/12/21 10:38:52;;;;;;;11.82;2.38;;;;;;;19.48;74.50;99814.66;5002607;28;20348;-38
2023/12/21 10:41:18;;;;;;;9.35;2.80;;;;;;;19.49;74.24;99817.09;4989787;28;20025;-39
2023/12/21 10:43:45;;;;;;;9.10;2.63;;;;;;;19.51;74.15;99811.28;4988426;28;20391;-38
2023/12/21 10:46:10;;;;;;;10.15;2.65;;;;;;;19.53;74.01;99826.38;5007164;28;21635;-38
2023/12/21 10:48:38;;;;;;;11.43;2.30;;;;;;;19.53;74.03;99820.03;5005895;28;20761;-38
2023/12/21 10:51:04;;;;;;;9.20;2.78;;;;;;;19.54;74.12;99832.66;5004809;28;20092;-37
2023/12/21 10:53:30;;;;;;;8.57;2.80;;;;;;;19.53;74.23;99829.13;4993331;28;20091;-37
2023/12/21 10:55:57;;;;;;;8.85;2.30;;;;;;;19.54;74.33;99832.66;4999623;28;20036;-38
2023/12/21 10:58:24;;;;;;;9.75;2.60;;;;;;;19.54;74.26;99838.16;5003670;28;20037;-38
2023/12/21 11:00:49;;;;;;;8.57;2.45;;;;;;;19.54;74.02;99811.47;4985736;28;20116;-38
2023/12/21 11:03:19;;;;;;;8.27;2.28;;;;;;;19.53;74.36;99825.53;4988104;28;20113;-38
2023/12/21 11:05:44;;;;;;;9.63;2.50;;;;;;;19.53;74.41;99809.88;5002753;28;20032;-39
2023/12/21 11:08:10;;;;;;;7.53;2.40;;;;;;;19.52;74.14;99811.00;5004576;28;20022;-38
2023/12/21 11:10:36;;;;;;;8.13;2.63;;;;;;;19.53;74.19;99798.06;4987078;28;20033;-39
2023/12/21 11:13:02;;;;;;;6.90;2.28;;;;;;;19.53;74.18;99792.56;4994852;28;20663;-38
2023/12/21 11:15:28;;;;;;;9.30;2.80;;;;;;;19.52;74.14;99786.25;5003187;28;20025;-37
2023/12/21 11:17:59;;;;;;;8.25;2.70;;;;;;;19.54;73.66;99785.94;4989333;28;20102;-38
2023/12/21 11:20:29;;;;;;;20.65;2.72;;;;;;;19.58;73.71;99803.41;5003050;28;20025;-38
2023/12/21 11:22:55;;;;;;;7.32;2.42;;;;;;;19.62;73.22;99781.63;5003285;28;20062;-37